Time;durP1;ratioP1;P1;durP2;ratioP2;P2;SDS_P1;SDS_P2;PMS_P1;PMS_P2;Temp;Humidity;BMP_temperature;BMP_pressure;BME280_temperature;BME280_humidity;BME280_pressure;Samples;Min_cycle;Max_cycle;Signal;HPM_P1;HPM_P2
2021/03/26 00:01:27;;;;;;;28.23;14.00;;;1.90;72.70;;;;;;5028545;28;20120;-67
2021/03/26 00:03:55;;;;;;;23.15;13.23;;;1.80;72.60;;;;;;5028557;28;20055;-67
2021/03/26 00:06:28;;;;;;;27.10;16.00;;;1.80;72.70;;;;;;5028567;28;20025;-67
2021/03/26 00:08:55;;;;;;;31.33;16.38;;;1.80;73.00;;;;;;5028414;28;20043;-67
2021/03/26 00:11:26;;;;;;;37.75;18.45;;;1.80;73.00;;;;;;5027553;28;20423;-67
2021/03/26 00:13:52;;;;;;;31.90;14.80;;;1.70;73.10;;;;;;5028442;28;20029;-66
2021/03/26 00:16:19;;;;;;;;;;;1.80;73.10;;;;;;5028751;28;20037;-68
2021/03/26 00:18:44;;;;;;;29.98;13.55;;;1.80;73.30;;;;;;5028435;28;19909;-68
2021/03/26 00:21:11;;;;;;;;;;;1.80;73.30;;;;;;5028646;28;20046;-68
2021/03/26 00:23:36;;;;;;;27.80;11.90;;;1.90;73.30;;;;;;5028323;28;20358;-68
2021/03/26 00:26:02;;;;;;;;;;;2.00;73.00;;;;;;5027236;28;20033;-67
2021/03/26 00:28:28;;;;;;;18.00;11.07;;;2.10;72.90;;;;;;5027092;28;19911;-67
2021/03/26 00:30:53;;;;;;;;;;;2.00;72.70;;;;;;5028483;28;20473;-67
2021/03/26 00:33:19;;;;;;;21.77;11.55;;;2.00;72.40;;;;;;5028128;28;19915;-67
2021/03/26 00:35:45;;;;;;;;;;;2.00;72.30;;;;;;5028440;28;20482;-68
2021/03/26 00:38:11;;;;;;;23.10;13.60;;;1.90;72.60;;;;;;5028108;28;19913;-68
2021/03/26 00:40:36;;;;;;;;;;;1.80;72.60;;;;;;5027012;28;20079;-66
2021/03/26 00:43:03;;;;;;;25.73;13.10;;;1.80;72.60;;;;;;5026554;28;19909;-68
2021/03/26 00:45:32;;;;;;;21.95;12.63;;;1.70;73.70;;;;;;5026357;28;20025;-68
2021/03/26 00:47:58;;;;;;;23.10;13.10;;;1.80;73.50;;;;;;5027889;28;20055;-68
2021/03/26 00:50:50;;;;;;;;;;;1.70;73.40;;;;;;5028269;28;20489;-67
2021/03/26 00:53:28;;;;;;;19.73;10.85;;;1.80;73.50;;;;;;5024809;28;19955;-67
2021/03/26 00:55:55;;;;;;;17.35;10.45;;;1.90;73.30;;;;;;5026402;28;20421;-68
2021/03/26 00:58:22;;;;;;;23.65;11.50;;;2.00;73.00;;;;;;5027845;28;20036;-68
2021/03/26 01:00:48;;;;;;;20.80;11.55;;;2.00;72.50;;;;;;5027682;28;20071;-68
2021/03/26 01:03:15;;;;;;;22.60;12.15;;;1.90;72.50;;;;;;5027703;28;20612;-67
2021/03/26 01:05:45;;;;;;;23.50;12.93;;;1.80;72.90;;;;;;5027749;28;20025;-68
2021/03/26 01:08:24;;;;;;;19.67;11.25;;;1.80;73.40;;;;;;5027668;28;20099;-68
2021/03/26 01:11:31;;;;;;;28.08;14.32;;;1.70;73.50;;;;;;5026183;28;20445;-67
2021/03/26 01:13:58;;;;;;;27.13;13.55;;;1.60;73.50;;;;;;5018576;28;20053;-67
2021/03/26 01:16:26;;;;;;;25.30;13.50;;;1.50;74.10;;;;;;5027661;28;20120;-67
2021/03/26 01:18:52;;;;;;;29.00;15.35;;;1.40;74.40;;;;;;5027515;28;20033;-66
2021/03/26 01:21:30;;;;;;;26.63;15.55;;;1.40;74.60;;;;;;5028465;28;20040;-67
2021/03/26 01:23:58;;;;;;;25.63;13.95;;;1.40;75.40;;;;;;5031785;28;20030;-67
2021/03/26 01:26:24;;;;;;;24.50;12.05;;;1.30;74.90;;;;;;5031475;28;20320;-67
2021/03/26 01:28:51;;;;;;;20.40;11.85;;;1.30;75.00;;;;;;5031388;28;20033;-67
2021/03/26 01:31:17;;;;;;;24.88;13.02;;;1.30;74.90;;;;;;5031228;28;20029;-67
2021/03/26 01:33:45;;;;;;;22.65;12.65;;;1.30;74.80;;;;;;5031385;28;20030;-68
2021/03/26 01:36:12;;;;;;;21.73;12.90;;;1.20;74.90;;;;;;5031413;28;20513;-67
2021/03/26 01:38:38;;;;;;;19.10;11.82;;;1.20;75.10;;;;;;5031342;28;20036;-67
2021/03/26 01:41:32;;;;;;;24.58;12.75;;;1.10;75.10;;;;;;5031244;28;20037;-66
2021/03/26 01:43:59;;;;;;;21.45;12.65;;;1.10;75.50;;;;;;5031350;28;20498;-66
2021/03/26 01:46:26;;;;;;;22.23;12.60;;;1.20;75.70;;;;;;5031290;28;20108;-66
2021/03/26 01:48:56;;;;;;;21.15;12.77;;;1.20;75.50;;;;;;5031015;28;20080;-67
2021/03/26 01:51:28;;;;;;;18.23;10.52;;;1.20;75.40;;;;;;5030867;28;20493;-67
2021/03/26 01:53:55;;;;;;;20.50;12.35;;;1.20;75.40;;;;;;5031103;28;20105;-66
2021/03/26 01:56:22;;;;;;;22.65;12.27;;;1.20;75.50;;;;;;5030965;28;20033;-67
2021/03/26 01:58:48;;;;;;;18.67;10.80;;;1.10;75.70;;;;;;5030905;28;20430;-67
2021/03/26 02:01:28;;;;;;;19.33;11.07;;;1.10;75.70;;;;;;5030807;28;20381;-67
2021/03/26 02:03:59;;;;;;;20.15;11.35;;;1.10;75.60;;;;;;5030794;28;20452;-67
2021/03/26 02:06:30;;;;;;;20.65;9.82;;;1.10;75.70;;;;;;5030705;28;20484;-67
2021/03/26 02:09:09;;;;;;;18.13;10.75;;;1.10;75.60;;;;;;5029259;28;20060;-67
2021/03/26 02:11:59;;;;;;;20.23;12.02;;;1.00;75.70;;;;;;5029353;28;20068;-68
2021/03/26 02:14:36;;;;;;;20.20;11.55;;;1.00;75.80;;;;;;5029472;28;20044;-68
2021/03/26 02:17:02;;;;;;;;;;;1.00;75.70;;;;;;5031267;28;20547;-66
2021/03/26 02:19:34;;;;;;;27.40;12.38;;;1.00;76.00;;;;;;5030393;28;20990;-68
2021/03/26 02:22:01;;;;;;;25.20;12.68;;;1.00;75.90;;;;;;5030778;28;20037;-66
2021/03/26 02:24:28;;;;;;;21.80;11.30;;;0.90;76.10;;;;;;5029270;28;20087;-67
2021/03/26 02:26:59;;;;;;;22.70;13.25;;;0.90;76.20;;;;;;5030500;28;20029;-67
2021/03/26 02:29:28;;;;;;;27.45;13.05;;;0.90;76.80;;;;;;5030178;28;20057;-67
2021/03/26 02:32:01;;;;;;;28.95;15.00;;;0.90;76.50;;;;;;5029087;28;20025;-67
2021/03/26 02:34:28;;;;;;;26.13;13.43;;;0.90;76.40;;;;;;5029551;28;20640;-67
2021/03/26 02:37:04;;;;;;;32.42;14.43;;;0.90;76.70;;;;;;5030259;28;20537;-67
2021/03/26 02:39:38;;;;;;;33.67;15.68;;;0.90;76.60;;;;;;5029999;28;20022;-68
2021/03/26 02:42:14;;;;;;;31.00;13.95;;;0.90;76.40;;;;;;5028663;28;20030;-67
2021/03/26 02:45:13;;;;;;;29.48;15.68;;;0.90;76.50;;;;;;5028814;28;20547;-68
2021/03/26 02:47:52;;;;;;;28.33;14.68;;;0.90;76.80;;;;;;5013814;28;20465;-68
2021/03/26 02:50:28;;;;;;;29.02;14.02;;;0.90;76.80;;;;;;5029736;28;20033;-66
2021/03/26 02:53:00;;;;;;;25.50;13.80;;;0.90;76.80;;;;;;5030033;28;20098;-67
2021/03/26 02:55:41;;;;;;;24.08;13.18;;;0.90;76.70;;;;;;5029823;28;20030;-67
2021/03/26 02:58:20;;;;;;;24.08;13.18;;;0.80;76.40;;;;;;5029912;28;20025;-68
2021/03/26 03:01:02;;;;;;;28.58;14.85;;;0.80;76.40;;;;;;5029825;28;20036;-67
2021/03/26 03:03:30;;;;;;;29.17;15.32;;;0.80;76.50;;;;;;5029516;28;20037;-66
2021/03/26 03:06:12;;;;;;;29.23;14.25;;;0.70;76.80;;;;;;5029706;28;20414;-67
2021/03/26 03:08:40;;;;;;;28.17;13.52;;;0.70;77.10;;;;;;5029788;28;20116;-66
2021/03/26 03:11:35;;;;;;;28.20;13.77;;;0.70;77.10;;;;;;5029541;28;20038;-66
2021/03/26 03:14:04;;;;;;;26.00;12.63;;;0.70;77.00;;;;;;5029684;28;20082;-66
2021/03/26 03:16:41;;;;;;;30.25;16.27;;;0.60;76.90;;;;;;5029697;28;20029;-66
2021/03/26 03:19:18;;;;;;;38.80;18.55;;;0.70;77.10;;;;;;5029570;28;20522;-66
2021/03/26 03:21:51;;;;;;;32.40;16.90;;;0.60;77.40;;;;;;5029470;28;20526;-66
2021/03/26 03:24:23;;;;;;;27.65;14.68;;;0.50;77.70;;;;;;5029339;28;20026;-66
2021/03/26 03:27:15;;;;;;;21.38;10.95;;;0.60;77.70;;;;;;5029242;28;20061;-67
2021/03/26 03:29:58;;;;;;;24.70;11.15;;;0.70;77.70;;;;;;5029188;28;20750;-65
2021/03/26 03:32:58;;;;;;;25.52;10.73;;;0.80;78.10;;;;;;5029129;28;20564;-66
2021/03/26 03:35:46;;;;;;;16.42;9.90;;;0.80;77.10;;;;;;4970882;28;20449;-66
2021/03/26 03:38:17;;;;;;;21.02;10.35;;;1.00;76.80;;;;;;5026473;28;20043;-66
2021/03/26 03:41:02;;;;;;;19.08;9.88;;;1.10;76.30;;;;;;5028944;28;20036;-65
2021/03/26 03:44:01;;;;;;;15.30;9.38;;;1.20;75.80;;;;;;5028940;28;20082;-66
2021/03/26 03:46:27;;;;;;;17.08;9.45;;;1.20;75.40;;;;;;5008126;28;20124;-66
2021/03/26 03:48:55;;;;;;;;;;;1.30;75.30;;;;;;5036195;28;20136;-65
2021/03/26 03:51:26;;;;;;;15.88;8.75;;;1.20;75.30;;;;;;5067192;28;20677;-65
2021/03/26 03:54:09;;;;;;;16.83;9.15;;;1.10;75.30;;;;;;5068706;28;20036;-66
2021/03/26 03:56:51;;;;;;;20.75;11.35;;;1.10;75.60;;;;;;5068793;28;20059;-65
2021/03/26 03:59:34;;;;;;;21.90;11.20;;;1.00;75.60;;;;;;5068418;28;20485;-65
2021/03/26 04:02:27;;;;;;;21.30;11.32;;;1.00;75.70;;;;;;5068670;28;20078;-65
2021/03/26 04:05:07;;;;;;;21.63;12.55;;;1.00;76.00;;;;;;5068410;28;20033;-66
2021/03/26 04:07:51;;;;;;;21.73;13.25;;;1.00;76.20;;;;;;5057704;28;20501;-67
2021/03/26 04:10:17;;;;;;;17.58;9.63;;;0.90;76.30;;;;;;5056333;28;20068;-65
2021/03/26 04:12:49;;;;;;;21.10;11.82;;;1.00;76.40;;;;;;5068397;28;20032;-66
2021/03/26 04:15:20;;;;;;;21.13;9.98;;;1.00;76.20;;;;;;5066732;28;20527;-66
2021/03/26 04:17:54;;;;;;;19.73;11.57;;;1.00;76.30;;;;;;5068194;28;20728;-66
2021/03/26 04:20:37;;;;;;;26.55;16.27;;;1.00;76.30;;;;;;5067970;28;20024;-66
2021/03/26 04:23:48;;;;;;;18.98;11.55;;;1.00;76.10;;;;;;5067987;28;20024;-66
2021/03/26 04:26:22;;;;;;;30.45;12.45;;;1.00;76.00;;;;;;5044655;28;20630;-66
2021/03/26 04:28:53;;;;;;;28.88;16.27;;;1.10;76.10;;;;;;5057144;28;20029;-65
2021/03/26 04:31:27;;;;;;;33.08;16.27;;;1.10;76.00;;;;;;5058314;28;20116;-65
2021/03/26 04:33:54;;;;;;;28.48;13.18;;;1.20;76.10;;;;;;5054448;28;20017;-66
2021/03/26 04:36:26;;;;;;;22.75;11.43;;;1.30;76.00;;;;;;5056083;28;20126;-66
2021/03/26 04:39:10;;;;;;;19.65;10.90;;;1.40;75.80;;;;;;5047891;28;20476;-66
2021/03/26 04:41:50;;;;;;;19.15;10.80;;;1.60;75.20;;;;;;5047917;28;20473;-66
2021/03/26 04:44:50;;;;;;;18.08;10.85;;;1.80;74.50;;;;;;5048011;28;20582;-66
2021/03/26 04:47:38;;;;;;;19.60;10.50;;;1.90;74.10;;;;;;5047113;28;20160;-66
2021/03/26 04:50:20;;;;;;;39.85;18.95;;;1.80;73.90;;;;;;5047622;28;20052;-66
2021/03/26 04:52:53;;;;;;;37.63;17.38;;;1.80;73.60;;;;;;5047676;28;20024;-66
2021/03/26 04:55:25;;;;;;;31.10;16.63;;;1.70;73.40;;;;;;5047721;28;20025;-65
2021/03/26 04:58:16;;;;;;;37.25;17.95;;;1.60;73.70;;;;;;5047413;28;20028;-66
2021/03/26 05:00:47;;;;;;;33.88;16.92;;;1.60;73.70;;;;;;5047815;28;20036;-65
2021/03/26 05:03:19;;;;;;;29.92;16.00;;;1.50;73.80;;;;;;5046071;28;20074;-65
2021/03/26 05:05:52;;;;;;;28.25;12.50;;;1.50;73.80;;;;;;5047569;28;20531;-66
2021/03/26 05:08:19;;;;;;;19.27;11.18;;;1.70;73.80;;;;;;5047666;28;20039;-65
2021/03/26 05:10:47;;;;;;;23.80;11.48;;;1.80;73.60;;;;;;5047388;28;20037;-65
2021/03/26 05:13:29;;;;;;;19.67;10.13;;;1.90;73.50;;;;;;5046184;28;20107;-64
2021/03/26 05:16:24;;;;;;;18.23;10.48;;;2.20;72.60;;;;;;5047406;28;20462;-66
2021/03/26 05:19:00;;;;;;;22.55;10.60;;;2.40;72.00;;;;;;5047541;28;20113;-66
2021/03/26 05:21:44;;;;;;;18.90;9.98;;;2.50;72.20;;;;;;5047313;28;20667;-66
2021/03/26 05:24:39;;;;;;;19.58;10.88;;;2.60;71.40;;;;;;5047526;28;20017;-65
2021/03/26 05:27:08;;;;;;;19.70;10.68;;;2.70;71.30;;;;;;5047582;28;20553;-66
2021/03/26 05:29:34;;;;;;;21.83;12.23;;;2.90;71.10;;;;;;5047716;28;20037;-64
2021/03/26 05:32:34;;;;;;;20.92;10.32;;;3.00;70.80;;;;;;5046076;28;20512;-66
2021/03/26 05:35:08;;;;;;;18.98;10.73;;;3.20;70.70;;;;;;5027229;28;20037;-65
2021/03/26 05:37:42;;;;;;;29.20;12.45;;;3.30;70.50;;;;;;5047296;28;20323;-66
2021/03/26 05:40:44;;;;;;;24.02;13.57;;;3.70;70.00;;;;;;5047303;28;20127;-67
2021/03/26 05:43:29;;;;;;;32.42;17.08;;;4.30;69.50;;;;;;5045739;28;20033;-67
2021/03/26 05:46:18;;;;;;;27.65;15.23;;;4.90;66.50;;;;;;5047162;28;20025;-66
2021/03/26 05:49:00;;;;;;;28.70;16.65;;;5.50;66.00;;;;;;5046948;28;20199;-66
2021/03/26 05:51:40;;;;;;;29.67;18.85;;;6.10;63.70;;;;;;5046898;28;20025;-65
2021/03/26 05:54:12;;;;;;;32.08;19.25;;;6.80;61.20;;;;;;5047051;28;20044;-66
2021/03/26 05:56:49;;;;;;;37.03;17.38;;;7.20;59.50;;;;;;5047241;28;20120;-67
2021/03/26 05:59:35;;;;;;;39.33;17.95;;;7.60;57.70;;;;;;5045568;28;20078;-66
2021/03/26 06:02:26;;;;;;;32.42;18.73;;;8.00;56.90;;;;;;5015814;28;20041;-67
2021/03/26 06:05:20;;;;;;;23.63;15.32;;;8.20;55.70;;;;;;5045948;28;20029;-66
2021/03/26 06:08:12;;;;;;;22.27;12.43;;;8.50;53.70;;;;;;5047081;28;20104;-67
2021/03/26 06:10:48;;;;;;;18.60;12.07;;;8.80;52.10;;;;;;5049105;28;20105;-67
2021/03/26 06:13:24;;;;;;;25.00;12.45;;;9.20;50.60;;;;;;5050514;28;20025;-67
2021/03/26 06:16:31;;;;;;;22.63;12.20;;;9.50;49.50;;;;;;5050616;28;20033;-67
2021/03/26 06:19:15;;;;;;;19.80;11.90;;;10.00;48.20;;;;;;5050430;28;20032;-66
2021/03/26 06:21:55;;;;;;;24.05;11.88;;;10.50;46.40;;;;;;5049037;28;20039;-66
2021/03/26 06:24:42;;;;;;;19.92;12.75;;;10.80;45.10;;;;;;5049147;28;20033;-66
2021/03/26 06:27:28;;;;;;;24.65;13.25;;;11.30;44.00;;;;;;5048828;28;20029;-66
2021/03/26 06:30:13;;;;;;;25.45;14.38;;;11.80;41.60;;;;;;5050096;28;20048;-67
2021/03/26 06:33:07;;;;;;;20.60;14.32;;;12.40;40.30;;;;;;5050363;28;20040;-67
2021/03/26 06:36:03;;;;;;;23.13;12.07;;;12.90;39.00;;;;;;5048482;28;20025;-66
2021/03/26 06:38:59;;;;;;;31.77;14.75;;;13.50;37.30;;;;;;5050094;28;20033;-68
2021/03/26 06:41:28;;;;;;;22.90;14.25;;;13.70;36.50;;;;;;5049871;28;20033;-67
2021/03/26 06:44:30;;;;;;;23.33;13.80;;;13.90;36.70;;;;;;5049772;28;20493;-68
2021/03/26 06:47:03;;;;;;;18.20;12.77;;;14.30;35.10;;;;;;5048285;28;20037;-67
2021/03/26 06:49:51;;;;;;;21.65;13.02;;;14.70;34.70;;;;;;5048360;28;20206;-66
2021/03/26 06:52:44;;;;;;;24.17;14.18;;;15.20;33.20;;;;;;5048256;28;20029;-66
2021/03/26 06:55:40;;;;;;;18.98;12.25;;;15.60;32.30;;;;;;5044876;28;20055;-66
2021/03/26 06:58:22;;;;;;;18.23;12.35;;;15.70;31.20;;;;;;5024106;28;20045;-66
2021/03/26 07:01:09;;;;;;;20.55;16.00;;;16.00;30.80;;;;;;5045044;28;20020;-66
2021/03/26 07:04:02;;;;;;;21.45;12.52;;;15.80;30.70;;;;;;5046670;28;20094;-67
2021/03/26 07:07:09;;;;;;;18.42;12.50;;;16.40;30.60;;;;;;5042890;28;20021;-66
2021/03/26 07:09:59;;;;;;;19.27;13.37;;;16.60;30.20;;;;;;5014137;28;20871;-67
2021/03/26 07:12:55;;;;;;;16.35;11.35;;;16.90;30.20;;;;;;5046413;28;20033;-66
2021/03/26 07:15:29;;;;;;;16.92;12.07;;;17.30;29.70;;;;;;5045920;28;20501;-66
2021/03/26 07:18:05;;;;;;;20.45;13.13;;;17.40;29.70;;;;;;5047792;28;20382;-66
2021/03/26 07:20:36;;;;;;;;;;;18.00;29.60;;;;;;5049518;28;20218;-66
2021/03/26 07:23:27;;;;;;;19.80;12.15;;;18.30;28.30;;;;;;5048049;28;20609;-66
2021/03/26 07:26:14;;;;;;;21.65;13.93;;;18.90;27.80;;;;;;5049288;28;20025;-66
2021/03/26 07:28:57;;;;;;;19.83;12.60;;;19.30;27.30;;;;;;5048880;28;20106;-66
2021/03/26 07:31:41;;;;;;;24.05;14.27;;;19.70;26.80;;;;;;5046788;28;20036;-68
2021/03/26 07:34:36;;;;;;;19.23;12.80;;;19.90;26.70;;;;;;5048130;28;20096;-68
2021/03/26 07:37:18;;;;;;;23.00;14.10;;;20.50;26.10;;;;;;5044289;28;20587;-67
2021/03/26 07:39:56;;;;;;;32.00;15.60;;;20.70;26.10;;;;;;5046634;28;20162;-68
2021/03/26 07:42:55;;;;;;;21.55;14.80;;;20.90;25.80;;;;;;5048035;28;20060;-68
2021/03/26 07:45:30;;;;;;;20.60;16.52;;;21.60;24.90;;;;;;5045376;28;20106;-67
2021/03/26 07:48:32;;;;;;;20.30;15.10;;;21.40;25.00;;;;;;5048204;28;20044;-67
2021/03/26 07:51:04;;;;;;;26.45;14.77;;;21.80;24.10;;;;;;5021896;28;20081;-67
2021/03/26 07:53:43;;;;;;;21.95;15.18;;;22.00;24.90;;;;;;5028725;28;20028;-67
2021/03/26 07:56:49;;;;;;;21.55;15.27;;;22.30;24.00;;;;;;5027514;28;20057;-68
2021/03/26 07:59:33;;;;;;;22.35;14.80;;;22.30;23.90;;;;;;5028637;28;20030;-67
2021/03/26 08:02:23;;;;;;;22.30;15.90;;;22.50;23.80;;;;;;5028616;28;20033;-67
2021/03/26 08:04:54;;;;;;;27.35;15.50;;;22.80;24.00;;;;;;5028667;28;20022;-68
2021/03/26 08:07:41;;;;;;;21.45;14.93;;;23.20;23.20;;;;;;5027362;28;20033;-67
2021/03/26 08:10:43;;;;;;;22.85;16.77;;;23.10;22.90;;;;;;5043975;28;20039;-67
2021/03/26 08:13:39;;;;;;;37.03;17.45;;;22.90;23.40;;;;;;5006017;28;20619;-67
2021/03/26 08:16:15;;;;;;;25.73;16.92;;;23.00;23.30;;;;;;5048329;28;20867;-68
2021/03/26 08:19:08;;;;;;;25.45;17.60;;;23.30;23.10;;;;;;5053914;28;20436;-68
2021/03/26 08:22:11;;;;;;;23.98;16.63;;;23.50;22.40;;;;;;5052117;28;20032;-68
2021/03/26 08:25:00;;;;;;;30.17;17.40;;;23.60;22.90;;;;;;5048224;28;20029;-67
2021/03/26 08:27:37;;;;;;;31.63;19.35;;;23.40;23.10;;;;;;5048097;28;20029;-68
2021/03/26 08:30:21;;;;;;;24.98;17.90;;;23.10;24.00;;;;;;5047890;28;20032;-67
2021/03/26 08:33:16;;;;;;;27.85;18.55;;;22.80;23.10;;;;;;5046341;28;20599;-67
2021/03/26 08:36:06;;;;;;;27.67;18.83;;;22.40;23.90;;;;;;5048115;28;20025;-67
2021/03/26 08:39:09;;;;;;;25.05;18.10;;;22.50;23.90;;;;;;5047893;28;20460;-67
2021/03/26 08:41:39;;;;;;;26.42;18.63;;;22.60;24.30;;;;;;5047998;28;20029;-67
2021/03/26 08:44:06;;;;;;;26.25;19.00;;;22.80;24.10;;;;;;5047831;28;20033;-68
2021/03/26 08:46:36;;;;;;;31.70;19.55;;;23.00;23.60;;;;;;5047937;28;20397;-68
2021/03/26 08:49:23;;;;;;;27.50;18.33;;;22.80;24.10;;;;;;5047508;28;20059;-67
2021/03/26 08:51:55;;;;;;;26.02;18.00;;;23.00;24.30;;;;;;5047883;28;20060;-67
2021/03/26 08:54:27;;;;;;;29.25;20.20;;;22.90;24.00;;;;;;5053847;28;20033;-67
2021/03/26 08:56:58;;;;;;;27.50;19.75;;;22.80;23.70;;;;;;5055358;28;20111;-67
2021/03/26 08:59:37;;;;;;;30.00;20.38;;;22.80;24.60;;;;;;5056254;28;20025;-67
2021/03/26 09:02:32;;;;;;;32.25;18.73;;;22.70;24.40;;;;;;5054107;28;20029;-67
2021/03/26 09:05:10;;;;;;;37.45;20.77;;;22.90;24.60;;;;;;5052349;28;20076;-68
2021/03/26 09:07:54;;;;;;;31.45;19.98;;;22.80;24.30;;;;;;5047545;28;20071;-67
2021/03/26 09:10:41;;;;;;;38.35;24.15;;;22.90;24.20;;;;;;5047385;28;20037;-67
2021/03/26 09:13:39;;;;;;;33.50;21.27;;;22.80;24.20;;;;;;5047605;28;20029;-67
2021/03/26 09:16:11;;;;;;;28.67;21.08;;;22.60;24.10;;;;;;5047435;28;20512;-67
2021/03/26 09:18:53;;;;;;;28.73;21.42;;;22.50;24.90;;;;;;5047601;28;20029;-67
2021/03/26 09:21:57;;;;;;;30.52;20.65;;;22.30;25.30;;;;;;5047526;28;20512;-67
2021/03/26 09:24:53;;;;;;;34.55;21.15;;;22.70;24.80;;;;;;5047399;28;20066;-67
2021/03/26 09:27:25;;;;;;;39.65;21.95;;;22.70;24.70;;;;;;5047406;28;20033;-68
2021/03/26 09:30:13;;;;;;;35.33;21.98;;;22.70;24.60;;;;;;5046049;28;20045;-67
2021/03/26 09:32:51;;;;;;;31.88;19.30;;;22.60;24.10;;;;;;5047117;28;20036;-66
2021/03/26 09:35:35;;;;;;;28.30;20.80;;;22.50;24.70;;;;;;5047278;28;20536;-68
2021/03/26 09:38:07;;;;;;;29.55;20.10;;;22.60;24.80;;;;;;5047565;28;20025;-67
2021/03/26 09:40:46;;;;;;;30.52;19.73;;;22.60;25.00;;;;;;5045980;28;20057;-67
2021/03/26 09:43:41;;;;;;;29.02;20.40;;;22.90;24.10;;;;;;5049483;28;20028;-68
2021/03/26 09:46:12;;;;;;;26.63;20.33;;;22.60;25.00;;;;;;5049817;28;20092;-67
2021/03/26 09:48:56;;;;;;;30.20;22.52;;;22.70;24.70;;;;;;5050977;28;20060;-67
2021/03/26 09:51:40;;;;;;;31.08;21.88;;;23.20;24.00;;;;;;5050818;28;20045;-67
2021/03/26 09:54:38;;;;;;;29.13;19.45;;;22.90;24.70;;;;;;5068714;28;20502;-68
2021/03/26 09:57:16;;;;;;;34.97;20.95;;;23.20;24.90;;;;;;5053817;28;20037;-67
2021/03/26 09:59:45;;;;;;;32.25;20.27;;;23.30;24.60;;;;;;5053003;28;20048;-67
2021/03/26 10:02:10;;;;;;;40.35;22.23;;;23.60;24.40;;;;;;5050938;28;20142;-67
2021/03/26 10:05:10;;;;;;;32.25;20.98;;;23.50;24.20;;;;;;5050804;28;20458;-67
2021/03/26 10:07:51;;;;;;;28.83;19.92;;;23.80;24.20;;;;;;5050695;28;20069;-66
2021/03/26 10:13:01;;;;;;;32.70;21.85;;;24.30;24.10;;;;;;5050926;28;20029;-68
2021/03/26 10:16:05;;;;;;;26.85;20.63;;;24.30;24.00;;;;;;5050333;28;20144;-67
2021/03/26 10:18:58;;;;;;;29.90;20.40;;;24.30;24.00;;;;;;5057288;28;20021;-67
2021/03/26 10:21:27;;;;;;;25.13;19.58;;;24.30;23.80;;;;;;5055782;28;20037;-67
2021/03/26 10:24:12;;;;;;;30.10;20.65;;;24.40;23.80;;;;;;5058750;28;20454;-67
2021/03/26 10:26:52;;;;;;;30.95;21.95;;;24.30;23.40;;;;;;5059404;28;20032;-68
2021/03/26 10:29:53;;;;;;;28.25;20.83;;;24.00;23.50;;;;;;5065524;28;20029;-67
2021/03/26 10:32:48;;;;;;;33.95;22.30;;;23.60;24.40;;;;;;5070200;28;20037;-67
2021/03/26 10:35:21;;;;;;;30.88;23.05;;;22.90;24.40;;;;;;5059152;28;20040;-67
2021/03/26 10:38:12;;;;;;;37.67;22.23;;;21.90;25.30;;;;;;5058600;28;20179;-67
2021/03/26 10:40:53;;;;;;;31.95;22.85;;;20.70;26.10;;;;;;5055209;28;20394;-66
2021/03/26 10:43:24;;;;;;;35.75;23.23;;;19.80;27.60;;;;;;5054148;28;20050;-66
2021/03/26 10:45:57;;;;;;;32.63;21.02;;;19.40;28.50;;;;;;5058134;28;20477;-67
2021/03/26 10:48:41;;;;;;;34.45;23.20;;;19.20;29.40;;;;;;5056365;28;20110;-66
2021/03/26 10:51:32;;;;;;;34.97;22.00;;;18.80;29.80;;;;;;5054646;28;20111;-67
2021/03/26 10:54:14;;;;;;;31.90;21.33;;;18.60;30.10;;;;;;5059199;28;20041;-67
2021/03/26 10:56:57;;;;;;;32.00;20.67;;;18.30;30.70;;;;;;5070012;28;20048;-67
2021/03/26 10:59:52;;;;;;;35.28;24.08;;;18.20;31.10;;;;;;5069566;28;20078;-66
2021/03/26 11:02:24;;;;;;;37.85;21.38;;;18.00;31.00;;;;;;5069740;28;20024;-66
2021/03/26 11:05:18;;;;;;;35.72;20.20;;;17.80;31.90;;;;;;5068301;28;20112;-67
2021/03/26 11:08:13;;;;;;;36.28;23.48;;;17.80;31.70;;;;;;5069714;28;20044;-67
2021/03/26 11:10:52;;;;;;;38.40;23.63;;;17.80;32.20;;;;;;5069415;28;20039;-67
2021/03/26 11:13:41;;;;;;;33.75;22.25;;;17.60;32.30;;;;;;5069378;28;20073;-66
2021/03/26 11:16:12;;;;;;;35.40;22.73;;;17.60;33.10;;;;;;5069350;28;20043;-66
2021/03/26 11:19:00;;;;;;;37.47;23.20;;;17.50;32.30;;;;;;5069297;28;20054;-66
2021/03/26 11:21:53;;;;;;;35.67;22.45;;;17.40;32.40;;;;;;5060591;28;20112;-66
2021/03/26 11:24:19;;;;;;;42.75;25.48;;;17.30;33.20;;;;;;5047619;28;20572;-66
2021/03/26 11:26:54;;;;;;;31.92;21.85;;;17.30;33.00;;;;;;5041377;28;20077;-66
2021/03/26 11:29:33;;;;;;;37.42;24.33;;;17.20;33.70;;;;;;5037106;28;20037;-66
2021/03/26 11:32:07;;;;;;;38.88;23.17;;;17.00;33.40;;;;;;5040053;28;20063;-66
2021/03/26 11:34:49;;;;;;;44.40;24.83;;;17.00;33.50;;;;;;5045423;28;20021;-67
2021/03/26 11:37:21;;;;;;;36.33;23.30;;;17.00;33.40;;;;;;5047920;28;20035;-67
2021/03/26 11:39:58;;;;;;;35.45;23.60;;;16.90;33.50;;;;;;5048753;28;20032;-67
2021/03/26 11:42:36;;;;;;;40.92;24.35;;;16.90;33.80;;;;;;5029009;28;20048;-65
2021/03/26 11:45:22;;;;;;;36.20;24.30;;;16.80;33.40;;;;;;5029131;28;20083;-66
2021/03/26 11:48:03;;;;;;;37.85;23.33;;;16.90;34.40;;;;;;5028934;28;20053;-67
2021/03/26 11:50:39;;;;;;;38.38;22.70;;;17.00;33.90;;;;;;5028778;28;20060;-66
2021/03/26 11:53:22;;;;;;;39.20;22.98;;;17.00;33.10;;;;;;5028905;28;20052;-66
2021/03/26 11:56:09;;;;;;;37.78;24.35;;;16.90;34.00;;;;;;5028838;28;20088;-67
2021/03/26 11:59:02;;;;;;;41.22;25.65;;;16.90;33.80;;;;;;5028817;28;20639;-66
2021/03/26 12:01:48;;;;;;;40.60;23.40;;;16.90;34.00;;;;;;5028671;28;20022;-68
2021/03/26 12:04:21;;;;;;;38.40;22.93;;;16.90;33.50;;;;;;5028712;28;20498;-67
2021/03/26 12:07:00;;;;;;;38.97;22.80;;;16.90;33.60;;;;;;5027643;28;20509;-66
2021/03/26 12:09:41;;;;;;;43.17;24.08;;;16.90;33.60;;;;;;5027883;28;20049;-66
2021/03/26 12:12:30;;;;;;;33.58;22.38;;;16.90;34.20;;;;;;5028273;28;20056;-66
2021/03/26 12:15:26;;;;;;;35.20;23.00;;;16.90;33.20;;;;;;5028498;28;20022;-67
2021/03/26 12:18:29;;;;;;;37.35;24.17;;;16.90;33.60;;;;;;5027602;28;20635;-67
2021/03/26 12:21:25;;;;;;;39.05;24.02;;;16.90;33.70;;;;;;5028135;28;20086;-67
2021/03/26 12:24:01;;;;;;;40.55;24.52;;;17.00;33.60;;;;;;4974214;28;20354;-67
2021/03/26 12:26:38;;;;;;;35.58;22.23;;;17.00;33.20;;;;;;5028415;28;20025;-67
2021/03/26 12:29:33;;;;;;;34.53;23.40;;;16.90;33.20;;;;;;5028028;28;20049;-67
2021/03/26 12:32:11;;;;;;;35.35;24.58;;;16.80;32.90;;;;;;5026296;28;20037;-67
2021/03/26 12:34:37;;;;;;;35.60;22.60;;;16.80;33.70;;;;;;5028293;28;20029;-67
2021/03/26 12:37:08;;;;;;;34.17;21.77;;;16.80;33.60;;;;;;5028215;28;20084;-66
2021/03/26 12:39:42;;;;;;;39.72;24.58;;;16.90;33.50;;;;;;5027884;28;20034;-67
2021/03/26 12:42:14;;;;;;;32.97;22.23;;;17.00;33.20;;;;;;5027934;28;20044;-66
2021/03/26 12:45:01;;;;;;;33.70;22.38;;;16.90;32.60;;;;;;5026802;28;20025;-67
2021/03/26 12:47:40;;;;;;;38.10;22.17;;;16.90;32.70;;;;;;5027597;28;20053;-67
2021/03/26 12:50:11;;;;;;;36.97;24.42;;;16.90;32.90;;;;;;5028010;28;20068;-67
2021/03/26 12:53:12;;;;;;;33.78;23.45;;;16.80;32.90;;;;;;5027952;28;20394;-66
2021/03/26 12:55:50;;;;;;;34.53;23.83;;;16.70;33.50;;;;;;4966463;28;20432;-67
2021/03/26 12:58:15;;;;;;;39.85;23.92;;;16.70;33.20;;;;;;5034257;28;20095;-67
2021/03/26 13:01:07;;;;;;;34.78;23.08;;;16.60;32.80;;;;;;5041592;28;20036;-68
2021/03/26 13:03:56;;;;;;;40.33;20.15;;;16.40;33.90;;;;;;5021424;28;20053;-66
2021/03/26 13:06:46;;;;;;;33.47;21.25;;;16.40;33.90;;;;;;5026817;28;20045;-66
2021/03/26 13:09:31;;;;;;;45.25;24.50;;;16.60;33.90;;;;;;5025313;28;20029;-67
2021/03/26 13:12:10;;;;;;;37.03;20.50;;;16.70;34.00;;;;;;5025453;28;20037;-67
2021/03/26 13:14:42;;;;;;;28.75;18.10;;;16.70;33.20;;;;;;5026710;28;20038;-67
2021/03/26 13:17:17;;;;;;;39.45;21.35;;;16.80;33.30;;;;;;5025966;28;20041;-67
2021/03/26 13:19:43;;;;;;;32.72;19.98;;;16.80;31.70;;;;;;5030794;28;20037;-66
2021/03/26 13:22:32;;;;;;;33.30;19.45;;;16.70;32.00;;;;;;5029338;28;20417;-67
2021/03/26 13:25:20;;;;;;;32.63;17.67;;;16.80;32.40;;;;;;5030817;28;20490;-66
2021/03/26 13:27:51;;;;;;;31.55;18.58;;;16.90;32.60;;;;;;5036910;28;20147;-67
2021/03/26 13:30:30;;;;;;;27.45;18.90;;;16.90;31.60;;;;;;5049496;28;20108;-66
2021/03/26 13:32:56;;;;;;;26.20;17.38;;;16.80;31.50;;;;;;5029486;28;20052;-66
2021/03/26 13:35:26;;;;;;;35.13;20.00;;;16.80;31.90;;;;;;5037183;28;20113;-66
2021/03/26 13:38:01;;;;;;;29.65;16.85;;;16.80;31.90;;;;;;5037955;28;20087;-66
2021/03/26 13:40:31;;;;;;;30.70;19.65;;;16.70;32.10;;;;;;5052025;28;20083;-66
2021/03/26 13:43:12;;;;;;;28.58;17.65;;;16.70;31.80;;;;;;5062947;28;20044;-66